createdAt,value
2023-04-30T00:01:05.282Z,100
2023-04-30T00:06:06.914Z,100
2023-04-30T00:11:08.240Z,100
2023-04-30T00:16:09.554Z,100
2023-04-30T00:21:10.859Z,100
2023-04-30T00:26:12.183Z,100
2023-04-30T00:31:13.564Z,100
2023-04-30T00:36:14.839Z,100
2023-04-30T00:41:16.234Z,100
2023-04-30T00:46:17.564Z,100
2023-04-30T00:51:19.026Z,100
2023-04-30T00:56:20.289Z,100
2023-04-30T01:01:21.863Z,100
2023-04-30T01:06:23.512Z,100
2023-04-30T01:11:25.046Z,100
2023-04-30T01:16:26.645Z,100
2023-04-30T01:21:28.262Z,100
2023-04-30T01:26:29.836Z,100
2023-04-30T01:31:31.452Z,100
2023-04-30T01:36:33.006Z,100
2023-04-30T01:41:34.477Z,100
2023-04-30T01:46:36.050Z,100
2023-04-30T01:51:37.644Z,100
2023-04-30T01:56:38.908Z,100
2023-04-30T02:01:40.489Z,100
2023-04-30T02:06:42.008Z,100
2023-04-30T02:11:43.278Z,100
2023-04-30T02:16:44.558Z,100
2023-04-30T02:21:46.042Z,100
2023-04-30T02:26:47.624Z,100
2023-04-30T02:31:49.239Z,100
2023-04-30T02:36:50.839Z,100
2023-04-30T02:41:52.397Z,100
2023-04-30T02:46:53.881Z,100
2023-04-30T02:51:55.510Z,100
2023-04-30T02:56:57.069Z,100
2023-04-30T03:01:58.665Z,100
2023-04-30T03:07:00.294Z,100
2023-04-30T03:12:03.909Z,100
2023-04-30T03:17:05.427Z,100
2023-04-30T03:22:07.089Z,100
2023-04-30T03:27:08.684Z,100
2023-04-30T03:32:10.138Z,100
2023-04-30T03:37:11.421Z,100
2023-04-30T03:42:12.673Z,100
2023-04-30T03:47:13.944Z,100
2023-04-30T03:52:15.379Z,100
2023-04-30T03:57:16.653Z,100
2023-04-30T04:02:18.042Z,100
2023-04-30T04:07:19.645Z,100
2023-04-30T04:12:21.098Z,100
2023-04-30T04:17:22.493Z,100
2023-04-30T04:22:23.912Z,100
2023-04-30T04:27:25.265Z,100
2023-04-30T04:32:26.859Z,100
2023-04-30T04:37:28.466Z,100
2023-04-30T04:42:29.933Z,100
2023-04-30T04:47:31.278Z,100
2023-04-30T04:52:32.764Z,100
2023-04-30T04:57:34.042Z,100
2023-04-30T05:02:35.704Z,100
2023-04-30T05:07:37.028Z,100
2023-04-30T05:12:38.412Z,100
2023-04-30T05:17:39.873Z,100
2023-04-30T05:22:41.250Z,100
2023-04-30T05:27:42.590Z,100
2023-04-30T05:32:43.887Z,100
2023-04-30T05:37:45.301Z,100
2023-04-30T05:42:46.589Z,100
2023-04-30T05:47:47.916Z,100
2023-04-30T05:52:49.450Z,100
2023-04-30T05:57:50.725Z,100
2023-04-30T06:02:52.053Z,100
2023-04-30T06:07:53.392Z,100
2023-04-30T06:12:54.902Z,100
2023-04-30T06:17:56.620Z,100
2023-04-30T06:22:58.307Z,100
2023-04-30T06:27:59.845Z,100
2023-04-30T06:33:01.441Z,100
2023-04-30T06:38:03.114Z,100
2023-04-30T06:43:04.691Z,100
2023-04-30T06:48:06.315Z,100
2023-04-30T06:53:07.917Z,100
2023-04-30T06:58:09.339Z,100
2023-04-30T07:03:10.808Z,100
2023-04-30T07:08:12.304Z,100
2023-04-30T07:13:13.692Z,100
2023-04-30T07:18:15.044Z,100
2023-04-30T07:23:16.405Z,100
2023-04-30T07:28:17.656Z,95.3033
2023-04-30T07:33:18.987Z,94.5704
2023-04-30T07:38:20.519Z,91.80264
2023-04-30T07:43:21.760Z,89.65259
2023-04-30T07:48:23.080Z,87.66894
2023-04-30T07:53:24.399Z,86.18035
2023-04-30T07:58:25.718Z,83.23734
2023-04-30T08:03:27.111Z,86.40287
2023-04-30T08:08:28.434Z,84.34837
2023-04-30T08:13:29.690Z,88.96471
2023-04-30T08:18:30.976Z,87.18553
2023-04-30T08:23:32.357Z,88.65046
2023-04-30T08:28:33.921Z,86.49081
2023-04-30T08:33:35.501Z,84.5757
2023-04-30T08:38:36.987Z,85.63232
2023-04-30T08:43:38.560Z,80.33387
2023-04-30T08:48:40.147Z,72.82848
2023-04-30T08:53:41.403Z,75.17578
2023-04-30T08:58:42.721Z,68.85086
2023-04-30T09:03:44.099Z,68.88823
2023-04-30T09:08:46.415Z,65.10351
2023-04-30T09:13:47.667Z,65.07515
2023-04-30T09:18:48.926Z,64.0703
2023-04-30T09:23:50.284Z,65.08129
2023-04-30T09:28:51.576Z,60.39175
2023-04-30T09:33:52.876Z,60.13194
2023-04-30T09:38:54.110Z,53.85153
2023-04-30T09:43:55.409Z,52.60926
2023-04-30T09:48:56.827Z,54.2486
2023-04-30T09:53:58.164Z,51.12398
2023-04-30T09:58:59.689Z,49.56282
2023-04-30T10:04:01.084Z,49.68943
2023-04-30T10:09:02.657Z,48.72985
2023-04-30T10:14:04.209Z,47.66181
2023-04-30T10:19:05.740Z,42.81363
2023-04-30T10:24:07.085Z,43.68066
2023-04-30T10:29:08.400Z,44.71241
2023-04-30T10:34:09.745Z,44.85016
2023-04-30T10:39:11.162Z,42.07608
2023-04-30T10:44:12.729Z,39.81836
2023-04-30T10:49:13.977Z,39.46359
2023-04-30T10:54:15.249Z,40.43785
2023-04-30T10:59:16.548Z,40.98105
2023-04-30T11:04:17.997Z,39.02331
2023-04-30T11:09:20.062Z,37.93766
2023-04-30T11:14:21.374Z,36.22762
2023-04-30T11:19:22.651Z,34.65918
2023-04-30T11:24:24.014Z,35.62302
2023-04-30T11:29:25.379Z,33.14237
2023-04-30T11:34:26.767Z,35.59935
2023-04-30T11:39:28.077Z,34.49996
2023-04-30T11:44:29.350Z,34.15815
2023-04-30T11:49:30.880Z,34.28889
2023-04-30T11:54:32.154Z,36.41284
2023-04-30T11:59:33.410Z,36.20312
2023-04-30T12:04:34.941Z,34.72531
2023-04-30T12:09:36.361Z,34.96548
2023-04-30T12:14:37.785Z,36.7289
2023-04-30T12:19:39.136Z,35.00364
2023-04-30T12:24:40.656Z,35.56032
2023-04-30T12:29:42.090Z,37.77717
2023-04-30T12:34:43.668Z,35.61359
2023-04-30T12:39:44.946Z,37.32026
2023-04-30T12:44:46.311Z,36.98803
2023-04-30T12:49:47.699Z,35.61596
2023-04-30T12:54:49.168Z,35.36951
2023-04-30T12:59:50.413Z,36.48157
2023-04-30T13:04:51.727Z,36.17824
2023-04-30T13:09:53.310Z,35.14428
2023-04-30T13:14:54.869Z,33.87803
2023-04-30T13:19:56.456Z,36.21439
2023-04-30T13:24:58.223Z,36.16915
2023-04-30T13:29:59.481Z,34.49194
2023-04-30T13:35:00.998Z,34.33898
2023-04-30T13:40:02.431Z,33.40448
2023-04-30T13:45:03.684Z,34.57159
2023-04-30T13:50:05.263Z,33.6166
2023-04-30T13:55:06.559Z,32.24707
2023-04-30T14:00:07.925Z,32.71292
2023-04-30T14:05:09.347Z,31.54726
2023-04-30T14:10:10.836Z,32.04215
2023-04-30T14:15:12.249Z,33.0725
2023-04-30T14:20:13.512Z,32.78852
2023-04-30T14:25:14.844Z,34.26475
2023-04-30T14:30:17.526Z,32.32847
2023-04-30T14:35:18.890Z,32.63069
2023-04-30T14:40:20.313Z,34.02354
2023-04-30T14:45:21.658Z,33.24428
2023-04-30T14:50:23.254Z,34.312
2023-04-30T14:55:24.651Z,34.62558
2023-04-30T15:00:26.037Z,34.48688
2023-04-30T15:05:27.363Z,35.04878
2023-04-30T15:10:28.754Z,35.64776
2023-04-30T15:15:30.333Z,39.18049
2023-04-30T15:20:31.621Z,40.44168
2023-04-30T15:25:32.987Z,40.79124
2023-04-30T15:30:34.277Z,43.98013
2023-04-30T15:35:35.564Z,46.90398
2023-04-30T15:40:36.994Z,47.05741
2023-04-30T15:45:38.334Z,44.64115
2023-04-30T15:50:39.698Z,44.82061
2023-04-30T15:55:41.214Z,46.7319
2023-04-30T16:00:42.622Z,48.01116
2023-04-30T16:05:44.291Z,47.43264
2023-04-30T16:10:45.685Z,47.87781
2023-04-30T16:15:47.245Z,48.76289
2023-04-30T16:20:48.488Z,50.44301
2023-04-30T16:25:50.162Z,49.4136
2023-04-30T16:30:51.605Z,52.64274
2023-04-30T16:35:53.028Z,55.53678
2023-04-30T16:40:54.921Z,53.89988
2023-04-30T16:45:56.576Z,53.64963
2023-04-30T16:50:58.146Z,54.77688
2023-04-30T16:55:59.649Z,55.89181
2023-04-30T17:01:01.065Z,56.39806
2023-04-30T17:06:02.663Z,58.05037
2023-04-30T17:11:04.185Z,56.06459
2023-04-30T17:16:05.580Z,57.20944
2023-04-30T17:21:06.911Z,58.33151
2023-04-30T17:26:08.277Z,57.17999
2023-04-30T17:31:09.666Z,55.90476
2023-04-30T17:36:11.074Z,57.61115
2023-04-30T17:41:12.788Z,58.5317
2023-04-30T17:46:14.255Z,57.6339
2023-04-30T17:51:15.679Z,60.03142
2023-04-30T17:56:17.169Z,59.86213
2023-04-30T18:01:18.685Z,62.10462
2023-04-30T18:06:20.559Z,62.13765
2023-04-30T18:11:22.308Z,62.23711
2023-04-30T18:16:23.690Z,62.18515
2023-04-30T18:21:25.480Z,65.18189
2023-04-30T18:26:27.376Z,64.31819
2023-04-30T18:31:29.211Z,65.12315
2023-04-30T18:36:30.927Z,64.55995
2023-04-30T18:41:32.932Z,62.96531
2023-04-30T18:46:34.797Z,62.15587
2023-04-30T18:51:36.651Z,63.21716
2023-04-30T18:56:38.727Z,65.93552
2023-04-30T19:01:40.637Z,65.25942
2023-04-30T19:06:42.725Z,64.37249
2023-04-30T19:11:44.668Z,66.52777
2023-04-30T19:16:46.648Z,67.52921
2023-04-30T19:21:48.799Z,68.14166
2023-04-30T19:26:50.815Z,70.0602
2023-04-30T19:31:53.002Z,68.0129
2023-04-30T19:36:55.056Z,67.70496
2023-04-30T19:41:57.059Z,69.28617
2023-04-30T19:46:58.722Z,70.55336
2023-04-30T19:52:00.517Z,68.43237
2023-04-30T19:57:02.480Z,67.85521
2023-04-30T20:02:04.232Z,70.93908
2023-04-30T20:07:05.776Z,74.13639
2023-04-30T20:12:07.301Z,71.82344
2023-04-30T20:17:08.948Z,72.83302
2023-04-30T20:22:10.493Z,71.13319
2023-04-30T20:27:12.054Z,69.37786
2023-04-30T20:32:13.721Z,69.49595
2023-04-30T20:37:15.375Z,73.5033
2023-04-30T20:42:17.141Z,72.59844
2023-04-30T20:47:19.537Z,73.31755
2023-04-30T20:52:21.342Z,74.74543
2023-04-30T20:57:22.802Z,73.16601
2023-04-30T21:02:24.050Z,75.26516
2023-04-30T21:07:25.574Z,75.60633
2023-04-30T21:12:27.053Z,73.10472
2023-04-30T21:17:28.519Z,68.9851
2023-04-30T21:22:29.861Z,71.16376
2023-04-30T21:27:31.235Z,76.02672
2023-04-30T21:32:32.680Z,74.41091
2023-04-30T21:37:34.327Z,76.35858
2023-04-30T21:42:35.808Z,76.89954
2023-04-30T21:47:37.284Z,74.58282
2023-04-30T21:52:38.791Z,82.38252
2023-04-30T21:57:40.689Z,74.41613
2023-04-30T22:02:42.341Z,81.60132
2023-04-30T22:07:43.984Z,79.14801
2023-04-30T22:12:47.944Z,79.04069
2023-04-30T22:17:50.004Z,82.64617
2023-04-30T22:22:51.593Z,81.68377
2023-04-30T22:27:53.216Z,82.5789
2023-04-30T22:32:55.244Z,77.44222
2023-04-30T22:37:56.553Z,77.17108
2023-04-30T22:42:58.044Z,76.68433
2023-04-30T22:48:01.617Z,78.43064
2023-04-30T22:53:03.620Z,83.54621
2023-04-30T22:58:05.177Z,85.79871
2023-04-30T23:03:06.566Z,87.70174
2023-04-30T23:08:08.263Z,84.84522
2023-04-30T23:13:09.936Z,89.48004
2023-04-30T23:18:11.518Z,93.69082
2023-04-30T23:23:13.131Z,94.59781
2023-04-30T23:28:14.763Z,94.35289
2023-04-30T23:33:16.101Z,88.03494
2023-04-30T23:38:17.469Z,85.80691
2023-04-30T23:43:18.994Z,88.0566
2023-04-30T23:48:20.389Z,91.39177
2023-04-30T23:53:21.990Z,90.88341
2023-04-30T23:58:23.331Z,89.88867
